DCM265 KHEF-KMIA
Flight info
| Callsign | DCM265 |
|---|---|
| Flight time | N/A |
| Altitude | 43000 |
| Route | GABBE3 RRSIN GSO Q83 JEVED Q97 DEBRL CSTAL3 |
| Aircraft | C750/M-SBDE3FGHRWXY/S |
Departure
| Time | 2026-04-14 20:58 |
|---|---|
| Airport | Manassas Regional Airport/Harry P. Davis Field (KHEF) |
Arrival
| Time | N/A |
|---|---|
| Airport | Miami International Airport (KMIA) |
| Time | Latitude | Longitude | Altitude | Speed | Heading |
|---|---|---|---|---|---|
| 2026-04-14 20:46 | 38.72143 | -77.51110 | 197 ft | 0 kts | 122° |
| 2026-04-14 20:54 | 38.72143 | -77.51109 | 197 ft | 2 kts | 122° |
| 2026-04-14 20:54 | 38.72126 | -77.51096 | 202 ft | 3 kts | 195° |
| 2026-04-14 20:54 | 38.72127 | -77.51126 | 201 ft | 5 kts | 296° |
| 2026-04-14 20:54 | 38.72153 | -77.51199 | 197 ft | 12 kts | 274° |
| 2026-04-14 20:55 | 38.72191 | -77.51301 | 197 ft | 13 kts | 322° |
| 2026-04-14 20:55 | 38.72266 | -77.51354 | 201 ft | 12 kts | 330° |
| 2026-04-14 20:55 | 38.72334 | -77.51402 | 197 ft | 11 kts | 328° |
| 2026-04-14 20:55 | 38.72419 | -77.51463 | 200 ft | 16 kts | 330° |
| 2026-04-14 20:56 | 38.72516 | -77.51535 | 202 ft | 15 kts | 331° |
| 2026-04-14 20:56 | 38.72612 | -77.51603 | 201 ft | 16 kts | 330° |
| 2026-04-14 20:56 | 38.72714 | -77.51675 | 197 ft | 17 kts | 330° |
| 2026-04-14 20:56 | 38.72802 | -77.51756 | 197 ft | 14 kts | 285° |
| 2026-04-14 20:57 | 38.72770 | -77.51859 | 204 ft | 9 kts | 232° |
| 2026-04-14 20:57 | 38.72714 | -77.51841 | 199 ft | 19 kts | 149° |
| 2026-04-14 20:57 | 38.72270 | -77.51518 | 198 ft | 124 kts | 151° |
| 2026-04-14 20:57 | 38.71443 | -77.50923 | 625 ft | 143 kts | 152° |
| 2026-04-14 20:58 | 38.70495 | -77.50387 | 1119 ft | 160 kts | 172° |
| 2026-04-14 20:58 | 38.69314 | -77.50438 | 1471 ft | 183 kts | 199° |
| 2026-04-14 20:58 | 38.68178 | -77.51289 | 1938 ft | 199 kts | 226° |
| 2026-04-14 20:58 | 38.67321 | -77.52794 | 2413 ft | 221 kts | 237° |
| 2026-04-14 20:59 | 38.66433 | -77.54527 | 3012 ft | 244 kts | 237° |
| 2026-04-14 20:59 | 38.65471 | -77.56362 | 3976 ft | 249 kts | 236° |
| 2026-04-14 20:59 | 38.64492 | -77.58215 | 5004 ft | 253 kts | 236° |
| 2026-04-14 20:59 | 38.63509 | -77.60087 | 6051 ft | 254 kts | 237° |
| 2026-04-14 21:00 | 38.62514 | -77.61961 | 6985 ft | 258 kts | 236° |
| 2026-04-14 21:00 | 38.61132 | -77.63473 | 7885 ft | 267 kts | 212° |
| 2026-04-14 21:00 | 38.59335 | -77.64191 | 8950 ft | 280 kts | 191° |
| 2026-04-14 21:00 | 38.57361 | -77.64265 | 9882 ft | 287 kts | 186° |
| 2026-04-14 21:01 | 38.55322 | -77.64298 | 10451 ft | 303 kts | 186° |
| 2026-04-14 21:01 | 38.53118 | -77.64362 | 10651 ft | 330 kts | 186° |
| 2026-04-14 21:01 | 38.50722 | -77.64445 | 10803 ft | 355 kts | 186° |
| 2026-04-14 21:01 | 38.48243 | -77.64503 | 11552 ft | 357 kts | 186° |
| 2026-04-14 21:02 | 38.45740 | -77.64559 | 12268 ft | 363 kts | 185° |
| 2026-04-14 21:02 | 38.43227 | -77.64632 | 13022 ft | 369 kts | 186° |
| 2026-04-14 21:02 | 38.40636 | -77.64707 | 13720 ft | 375 kts | 185° |
| 2026-04-14 21:02 | 38.38008 | -77.64775 | 14346 ft | 379 kts | 185° |
| 2026-04-14 21:03 | 38.35351 | -77.64845 | 14935 ft | 383 kts | 186° |
| 2026-04-14 21:03 | 38.32678 | -77.64977 | 15489 ft | 385 kts | 190° |
| 2026-04-14 21:03 | 38.30105 | -77.65829 | 16060 ft | 381 kts | 206° |
| 2026-04-14 21:03 | 38.27792 | -77.67411 | 16718 ft | 376 kts | 220° |
| 2026-04-14 21:04 | 38.25766 | -77.69518 | 17344 ft | 377 kts | 225° |
| 2026-04-14 21:04 | 38.23754 | -77.71690 | 17988 ft | 382 kts | 225° |
| 2026-04-14 21:04 | 38.21704 | -77.73881 | 18600 ft | 387 kts | 225° |
| 2026-04-14 21:04 | 38.19638 | -77.76084 | 19285 ft | 388 kts | 225° |
| 2026-04-14 21:05 | 38.17568 | -77.78302 | 20003 ft | 390 kts | 225° |
| 2026-04-14 21:05 | 38.15506 | -77.80509 | 20700 ft | 374 kts | 225° |
| 2026-04-14 21:05 | 38.13597 | -77.82526 | 21013 ft | 343 kts | 225° |
| 2026-04-14 21:05 | 38.11830 | -77.84417 | 21011 ft | 334 kts | 226° |
| 2026-04-14 21:06 | 38.10061 | -77.86330 | 21016 ft | 334 kts | 226° |
| 2026-04-14 21:06 | 38.08283 | -77.88228 | 21019 ft | 334 kts | 226° |
| 2026-04-14 21:06 | 38.06500 | -77.90119 | 21020 ft | 334 kts | 226° |
| 2026-04-14 21:06 | 38.04720 | -77.92012 | 21019 ft | 333 kts | 226° |
| 2026-04-14 21:07 | 38.02944 | -77.93905 | 21013 ft | 333 kts | 226° |
| 2026-04-14 21:07 | 38.01168 | -77.95796 | 21025 ft | 334 kts | 225° |
| 2026-04-14 21:07 | 37.99394 | -77.97680 | 21028 ft | 333 kts | 225° |
| 2026-04-14 21:07 | 37.97622 | -77.99562 | 21028 ft | 332 kts | 225° |
| 2026-04-14 21:08 | 37.95847 | -78.01446 | 21024 ft | 333 kts | 225° |
| 2026-04-14 21:08 | 37.94073 | -78.03329 | 21025 ft | 333 kts | 225° |
| 2026-04-14 21:08 | 37.92299 | -78.05208 | 21024 ft | 333 kts | 225° |
| 2026-04-14 21:08 | 37.90524 | -78.07090 | 21022 ft | 333 kts | 225° |
| 2026-04-14 21:09 | 37.88758 | -78.08958 | 21026 ft | 336 kts | 225° |
| 2026-04-14 21:09 | 37.86902 | -78.10938 | 21049 ft | 362 kts | 225° |
| 2026-04-14 21:09 | 37.84908 | -78.13052 | 21092 ft | 385 kts | 225° |
| 2026-04-14 21:09 | 37.82799 | -78.15266 | 21430 ft | 397 kts | 224° |
| 2026-04-14 21:10 | 37.80675 | -78.17494 | 22205 ft | 397 kts | 224° |
| 2026-04-14 21:10 | 37.78545 | -78.19744 | 22884 ft | 400 kts | 225° |
| 2026-04-14 21:10 | 37.76397 | -78.22020 | 23556 ft | 404 kts | 225° |
| 2026-04-14 21:10 | 37.74231 | -78.24300 | 24114 ft | 407 kts | 225° |
| 2026-04-14 21:11 | 37.72068 | -78.26571 | 24647 ft | 411 kts | 225° |
| 2026-04-14 21:11 | 37.69863 | -78.28888 | 25195 ft | 414 kts | 225° |
| 2026-04-14 21:11 | 37.67644 | -78.31223 | 25730 ft | 417 kts | 225° |
| 2026-04-14 21:11 | 37.65403 | -78.33576 | 26253 ft | 421 kts | 225° |
| 2026-04-14 21:12 | 37.63141 | -78.35948 | 26770 ft | 424 kts | 224° |
| 2026-04-14 21:12 | 37.60860 | -78.38338 | 27274 ft | 428 kts | 224° |